Aérodrome :







RETROUVEZ-NOUS SUR...

 
LOGIN :

S'inscrire | Disclaimer

   EN    FR    IT 

 









Légende :    VFR   VFR Marginal   IFR   IFR Intensif   IFR Très Intensif
Visi : 
Plafond : 
>= 8 km
>= 3000ft
5 à 8 km
1000 à 3000 ft
1500m à 5 km
500 à 1000 ft
800 à 1500m
200 à 500 ft
< 800m
< 200 ft
Symboles :   Orages  Brouillard  Fortes neiges  Fortes précipitations  Vent > 20 kt






- Altitude de l'aérodrome : 167 ft
- Code IATA : YAW


CYAW - CFB Shearwater

DERNIER METAR :
  • 071200Z 30008KT 15SM FEW100 BKN250 21/13 A3013 RMK AC1CI5 DA888FT SLP204

METARs EXPIRÉS :
  • 071100Z 29009KT 15SM FEW100 SCT250 20/13 A3013 RMK AC1CI4 DA694FT SLP204
  • 071000Z 29008KT 15SM FEW100 BKN250 18/13 A3012 RMK AC1CI6 DA434FT FST OBS SLP201

TAF TAF CYAW
Valide du 07 à 12h jusqu'au 08 à 00h UTC


071130Z 0712/0724 29010KT P6SM FEW100 BKN250
FM071800 24012KT P6SM FEW040 SCT150 BKN220
BECMG 0722/0724 24005KT RMK NXT FCST BY 071800Z
FIR CZQM / Amérique du Nord



MET'MAP, la Météo Aéronautique d'un coup d'oeil ! - Copyright ORBIFLY Décembre 2007 - Disclaimer

ORBIFLY MET'MAP TEAM :

Programmation & Développement : Alexandra Zaïnal
Sur une idée originale de : Baudouin d'Aumeries
Assistance à la programmation : Marc-Olivier Méhu
Soutien technique & logistique : Manuel Goepfert

Contact : metmap@orbifly.com




SOURCES & CREDITS :

   NOAA